This is the latest recevied weather packets stored in our database for station/object JA0BES-13. If no packets are shown the sender has not sent any weather packets the latest 10 day(s).
| Time | Temp. | Humidity | Pressure | Rain* | Wind** | Luminosity | Snow |
|---|---|---|---|---|---|---|---|
| 1777864448 | 23.89° C | 81% | 997.6 hPa | 5.59 mm | - | - | - |
| 1777845837 | 16.11° C | 100% | 998.6 hPa | 5.08 mm | - | - | - |
| 1777844036 | 15.56° C | 100% | 998.1 hPa | 5.08 mm | - | - | - |
| 1777842235 | 15.56° C | 100% | 998 hPa | 4.83 mm | - | - | - |
| 1777811617 | 16.11° C | 96% | 1001.9 hPa | 0.51 mm | - | - | - |
| 1777810416 | 16.11° C | 95% | 1001.8 hPa | 0.51 mm | - | - | - |
| 1777804413 | 16.11° C | 86% | 1002.8 hPa | 0.25 mm | - | - | - |
| 1777800810 | 18.33° C | 69% | 1002.9 hPa | 0 mm | - | - | - |
| 1777800210 | 18.89° C | 64% | 1002.8 hPa | 0 mm | - | - | - |
| 1777799610 | 19.44° C | 61% | 1002.9 hPa | 0 mm | - | - | - |
| 1777799009 | 19.44° C | 60% | 1002.9 hPa | 0 mm | - | - | - |
| 1777798409 | 19.44° C | 60% | 1003.1 hPa | 0 mm | - | - | - |
| 1777797208 | 20.56° C | 54% | 1003.2 hPa | 0 mm | - | - | - |
| 1777796608 | 20.56° C | 49% | 1003.4 hPa | 0 mm | - | - | - |
| 1777796007 | 21.11° C | 49% | 1003.2 hPa | 0 mm | - | - | - |
| 1777795407 | 21.11° C | 49% | 1003.3 hPa | 0 mm | - | - | - |
| 1777794807 | 21.67° C | 46% | 1003.2 hPa | 0 mm | - | - | - |
| 1777793606 | 22.22° C | 44% | 1003.1 hPa | 0 mm | - | - | - |
| 1777793005 | 22.78° C | 41% | 1003.2 hPa | 0 mm | - | - | - |
| 1777792405 | 22.78° C | 40% | 1003.3 hPa | 0 mm | - | - | - |
| 1777791805 | 23.33° C | 37% | 1003.1 hPa | 0 mm | - | - | - |
| 1777791205 | 23.33° C | 36% | 1003 hPa | 0 mm | - | - | - |
| 1777790604 | 23.33° C | 35% | 1002.9 hPa | 0 mm | - | - | - |
| 1777790004 | 23.33° C | 35% | 1002.7 hPa | 0 mm | - | - | - |
| 1777789403 | 23.89° C | 35% | 1002.7 hPa | 0 mm | - | - | - |
* Rain since midnight (hover to see other rain measurements)
** Current wind speed in m/s (hover to see current wind gust speed)